sensor_id;sensor_type;location;lat;lon;timestamp;P1;durP1;ratioP1;P2;durP2;ratioP2
32295;SDS011;18781;51.550;5.418;2023-06-22T00:00:55;5.20;;;4.18;;
32295;SDS011;18781;51.550;5.418;2023-06-22T00:03:22;7.85;;;4.95;;
32295;SDS011;18781;51.550;5.418;2023-06-22T00:05:49;7.13;;;4.50;;
32295;SDS011;18781;51.550;5.418;2023-06-22T00:08:15;5.38;;;3.80;;
32295;SDS011;18781;51.550;5.418;2023-06-22T00:10:41;5.10;;;4.05;;
32295;SDS011;18781;51.550;5.418;2023-06-22T00:13:07;8.70;;;4.07;;
32295;SDS011;18781;51.550;5.418;2023-06-22T00:15:33;9.90;;;4.53;;
32295;SDS011;18781;51.550;5.418;2023-06-22T00:17:59;5.63;;;4.55;;
32295;SDS011;18781;51.550;5.418;2023-06-22T00:20:25;9.85;;;4.60;;
32295;SDS011;18781;51.550;5.418;2023-06-22T00:22:55;6.25;;;4.20;;
32295;SDS011;18781;51.550;5.418;2023-06-22T00:25:21;6.07;;;4.28;;
32295;SDS011;18781;51.550;5.418;2023-06-22T00:27:47;6.70;;;4.20;;
32295;SDS011;18781;51.550;5.418;2023-06-22T00:30:13;5.80;;;4.40;;
32295;SDS011;18781;51.550;5.418;2023-06-22T00:32:40;6.57;;;3.92;;
32295;SDS011;18781;51.550;5.418;2023-06-22T00:35:06;8.05;;;4.40;;
32295;SDS011;18781;51.550;5.418;2023-06-22T00:37:32;5.80;;;4.10;;
32295;SDS011;18781;51.550;5.418;2023-06-22T00:39:58;12.10;;;4.20;;
32295;SDS011;18781;51.550;5.418;2023-06-22T00:42:23;10.90;;;4.70;;
32295;SDS011;18781;51.550;5.418;2023-06-22T00:44:49;7.15;;;4.75;;
32295;SDS011;18781;51.550;5.418;2023-06-22T00:47:15;10.43;;;5.25;;
32295;SDS011;18781;51.550;5.418;2023-06-22T00:49:42;10.50;;;5.45;;
32295;SDS011;18781;51.550;5.418;2023-06-22T00:52:08;8.32;;;5.20;;
32295;SDS011;18781;51.550;5.418;2023-06-22T00:54:38;10.25;;;5.45;;
32295;SDS011;18781;51.550;5.418;2023-06-22T00:57:10;11.45;;;6.20;;
32295;SDS011;18781;51.550;5.418;2023-06-22T00:59:40;11.23;;;6.38;;
32295;SDS011;18781;51.550;5.418;2023-06-22T01:02:07;7.90;;;5.80;;
32295;SDS011;18781;51.550;5.418;2023-06-22T01:04:34;9.15;;;6.80;;
32295;SDS011;18781;51.550;5.418;2023-06-22T01:10:03;8.27;;;6.35;;
32295;SDS011;18781;51.550;5.418;2023-06-22T01:13:01;9.23;;;6.20;;
32295;SDS011;18781;51.550;5.418;2023-06-22T01:15:33;9.48;;;6.18;;
32295;SDS011;18781;51.550;5.418;2023-06-22T01:18:04;9.25;;;6.28;;
32295;SDS011;18781;51.550;5.418;2023-06-22T01:20:33;8.48;;;6.57;;
32295;SDS011;18781;51.550;5.418;2023-06-22T01:28:53;9.27;;;5.93;;
32295;SDS011;18781;51.550;5.418;2023-06-22T01:31:27;8.93;;;6.53;;
32295;SDS011;18781;51.550;5.418;2023-06-22T01:34:01;10.27;;;6.40;;
32295;SDS011;18781;51.550;5.418;2023-06-22T01:36:29;8.93;;;5.70;;
32295;SDS011;18781;51.550;5.418;2023-06-22T01:38:56;11.15;;;6.20;;
32295;SDS011;18781;51.550;5.418;2023-06-22T01:41:24;8.43;;;6.28;;
32295;SDS011;18781;51.550;5.418;2023-06-22T01:43:51;11.18;;;6.80;;
32295;SDS011;18781;51.550;5.418;2023-06-22T01:46:18;13.07;;;7.97;;
32295;SDS011;18781;51.550;5.418;2023-06-22T01:48:45;11.82;;;8.18;;
32295;SDS011;18781;51.550;5.418;2023-06-22T01:51:11;12.55;;;8.48;;
32295;SDS011;18781;51.550;5.418;2023-06-22T01:53:37;11.15;;;8.75;;
32295;SDS011;18781;51.550;5.418;2023-06-22T01:56:03;11.80;;;8.52;;
32295;SDS011;18781;51.550;5.418;2023-06-22T01:58:29;11.38;;;8.98;;
32295;SDS011;18781;51.550;5.418;2023-06-22T02:00:57;12.00;;;8.15;;
32295;SDS011;18781;51.550;5.418;2023-06-22T02:03:38;15.88;;;9.20;;
32295;SDS011;18781;51.550;5.418;2023-06-22T02:06:10;10.90;;;8.38;;
32295;SDS011;18781;51.550;5.418;2023-06-22T02:08:41;14.48;;;8.57;;
32295;SDS011;18781;51.550;5.418;2023-06-22T02:11:13;18.27;;;9.50;;
32295;SDS011;18781;51.550;5.418;2023-06-22T02:13:41;15.65;;;9.65;;
32295;SDS011;18781;51.550;5.418;2023-06-22T02:16:08;13.48;;;9.18;;
32295;SDS011;18781;51.550;5.418;2023-06-22T02:18:38;16.73;;;10.77;;
32295;SDS011;18781;51.550;5.418;2023-06-22T02:21:05;17.58;;;10.35;;
32295;SDS011;18781;51.550;5.418;2023-06-22T02:23:31;12.35;;;10.02;;
32295;SDS011;18781;51.550;5.418;2023-06-22T02:25:59;15.10;;;10.63;;
32295;SDS011;18781;51.550;5.418;2023-06-22T02:28:25;13.27;;;10.50;;
32295;SDS011;18781;51.550;5.418;2023-06-22T02:30:51;16.67;;;11.38;;
32295;SDS011;18781;51.550;5.418;2023-06-22T02:33:16;14.90;;;10.52;;
32295;SDS011;18781;51.550;5.418;2023-06-22T02:35:42;13.85;;;10.32;;
32295;SDS011;18781;51.550;5.418;2023-06-22T02:38:10;13.30;;;10.00;;
32295;SDS011;18781;51.550;5.418;2023-06-22T02:40:36;14.50;;;10.75;;
32295;SDS011;18781;51.550;5.418;2023-06-22T02:43:02;16.02;;;11.38;;
32295;SDS011;18781;51.550;5.418;2023-06-22T02:45:27;17.63;;;12.43;;
32295;SDS011;18781;51.550;5.418;2023-06-22T02:47:53;16.90;;;11.85;;
32295;SDS011;18781;51.550;5.418;2023-06-22T02:50:20;20.38;;;12.70;;
32295;SDS011;18781;51.550;5.418;2023-06-22T02:52:45;15.02;;;11.73;;
32295;SDS011;18781;51.550;5.418;2023-06-22T02:55:11;19.33;;;11.90;;
32295;SDS011;18781;51.550;5.418;2023-06-22T02:57:37;20.52;;;12.40;;
32295;SDS011;18781;51.550;5.418;2023-06-22T03:00:03;17.75;;;12.38;;
32295;SDS011;18781;51.550;5.418;2023-06-22T03:02:41;21.38;;;12.82;;
32295;SDS011;18781;51.550;5.418;2023-06-22T03:05:07;18.48;;;13.38;;
32295;SDS011;18781;51.550;5.418;2023-06-22T03:07:41;19.27;;;13.50;;
32295;SDS011;18781;51.550;5.418;2023-06-22T03:12:37;18.58;;;12.13;;
32295;SDS011;18781;51.550;5.418;2023-06-22T03:15:07;20.95;;;13.98;;
32295;SDS011;18781;51.550;5.418;2023-06-22T03:17:34;24.00;;;13.45;;
32295;SDS011;18781;51.550;5.418;2023-06-22T03:20:00;16.83;;;13.45;;
32295;SDS011;18781;51.550;5.418;2023-06-22T03:22:27;19.83;;;13.05;;
32295;SDS011;18781;51.550;5.418;2023-06-22T03:24:52;18.55;;;12.80;;
32295;SDS011;18781;51.550;5.418;2023-06-22T03:27:18;19.70;;;13.80;;
32295;SDS011;18781;51.550;5.418;2023-06-22T03:29:43;22.30;;;14.57;;
32295;SDS011;18781;51.550;5.418;2023-06-22T03:32:09;19.92;;;14.50;;
32295;SDS011;18781;51.550;5.418;2023-06-22T03:34:35;18.42;;;13.80;;
32295;SDS011;18781;51.550;5.418;2023-06-22T03:37:03;21.38;;;13.68;;
32295;SDS011;18781;51.550;5.418;2023-06-22T03:39:29;16.00;;;13.52;;
32295;SDS011;18781;51.550;5.418;2023-06-22T03:41:55;22.05;;;14.18;;
32295;SDS011;18781;51.550;5.418;2023-06-22T03:44:20;19.17;;;14.10;;
32295;SDS011;18781;51.550;5.418;2023-06-22T03:46:46;19.58;;;14.68;;
32295;SDS011;18781;51.550;5.418;2023-06-22T03:49:11;20.33;;;14.60;;
32295;SDS011;18781;51.550;5.418;2023-06-22T03:51:37;20.50;;;13.88;;
32295;SDS011;18781;51.550;5.418;2023-06-22T03:54:02;20.27;;;14.60;;
32295;SDS011;18781;51.550;5.418;2023-06-22T03:56:28;21.42;;;14.85;;
32295;SDS011;18781;51.550;5.418;2023-06-22T03:58:53;22.75;;;15.82;;
32295;SDS011;18781;51.550;5.418;2023-06-22T04:01:19;23.75;;;15.50;;
32295;SDS011;18781;51.550;5.418;2023-06-22T04:03:45;27.70;;;15.57;;
32295;SDS011;18781;51.550;5.418;2023-06-22T04:06:13;20.30;;;15.07;;
32295;SDS011;18781;51.550;5.418;2023-06-22T04:08:45;23.73;;;15.82;;
32295;SDS011;18781;51.550;5.418;2023-06-22T04:11:16;26.42;;;15.48;;
32295;SDS011;18781;51.550;5.418;2023-06-22T04:13:42;27.00;;;15.63;;
32295;SDS011;18781;51.550;5.418;2023-06-22T04:16:08;27.25;;;15.18;;
32295;SDS011;18781;51.550;5.418;2023-06-22T04:18:34;27.33;;;16.20;;
32295;SDS011;18781;51.550;5.418;2023-06-22T04:20:59;24.13;;;16.73;;
32295;SDS011;18781;51.550;5.418;2023-06-22T04:23:25;25.15;;;15.07;;
32295;SDS011;18781;51.550;5.418;2023-06-22T04:25:50;23.48;;;16.65;;
32295;SDS011;18781;51.550;5.418;2023-06-22T04:28:16;25.50;;;16.83;;
32295;SDS011;18781;51.550;5.418;2023-06-22T04:30:42;20.58;;;16.42;;
32295;SDS011;18781;51.550;5.418;2023-06-22T04:33:14;22.08;;;14.90;;
32295;SDS011;18781;51.550;5.418;2023-06-22T04:35:40;24.55;;;16.10;;
32295;SDS011;18781;51.550;5.418;2023-06-22T04:38:08;21.23;;;16.08;;
32295;SDS011;18781;51.550;5.418;2023-06-22T04:40:34;25.60;;;16.80;;
32295;SDS011;18781;51.550;5.418;2023-06-22T04:43:00;26.83;;;17.30;;
32295;SDS011;18781;51.550;5.418;2023-06-22T04:45:27;22.38;;;16.52;;
32295;SDS011;18781;51.550;5.418;2023-06-22T04:47:54;22.67;;;16.88;;
32295;SDS011;18781;51.550;5.418;2023-06-22T04:50:19;22.08;;;16.83;;
32295;SDS011;18781;51.550;5.418;2023-06-22T04:52:47;23.83;;;17.02;;
32295;SDS011;18781;51.550;5.418;2023-06-22T04:55:12;25.23;;;16.75;;
32295;SDS011;18781;51.550;5.418;2023-06-22T04:57:43;24.05;;;18.75;;
32295;SDS011;18781;51.550;5.418;2023-06-22T05:00:15;25.65;;;17.55;;
32295;SDS011;18781;51.550;5.418;2023-06-22T05:02:43;22.10;;;17.75;;
32295;SDS011;18781;51.550;5.418;2023-06-22T05:05:13;25.90;;;17.30;;
32295;SDS011;18781;51.550;5.418;2023-06-22T05:07:39;25.25;;;18.05;;
32295;SDS011;18781;51.550;5.418;2023-06-22T05:12:34;27.95;;;18.30;;
32295;SDS011;18781;51.550;5.418;2023-06-22T05:14:59;25.45;;;18.65;;
32295;SDS011;18781;51.550;5.418;2023-06-22T05:17:26;26.25;;;18.67;;
32295;SDS011;18781;51.550;5.418;2023-06-22T05:19:52;25.63;;;17.92;;
32295;SDS011;18781;51.550;5.418;2023-06-22T05:22:18;29.10;;;18.75;;
32295;SDS011;18781;51.550;5.418;2023-06-22T05:24:44;26.20;;;18.63;;
32295;SDS011;18781;51.550;5.418;2023-06-22T05:27:11;31.90;;;20.48;;
32295;SDS011;18781;51.550;5.418;2023-06-22T05:29:36;32.55;;;20.48;;
32295;SDS011;18781;51.550;5.418;2023-06-22T05:32:02;30.52;;;20.83;;
32295;SDS011;18781;51.550;5.418;2023-06-22T05:34:28;30.10;;;21.92;;
32295;SDS011;18781;51.550;5.418;2023-06-22T05:36:54;33.03;;;22.58;;
32295;SDS011;18781;51.550;5.418;2023-06-22T05:39:21;31.40;;;22.73;;
32295;SDS011;18781;51.550;5.418;2023-06-22T05:41:46;34.30;;;22.40;;
32295;SDS011;18781;51.550;5.418;2023-06-22T05:44:12;29.77;;;22.05;;
32295;SDS011;18781;51.550;5.418;2023-06-22T05:46:41;30.55;;;22.08;;
32295;SDS011;18781;51.550;5.418;2023-06-22T05:49:12;35.55;;;22.25;;
32295;SDS011;18781;51.550;5.418;2023-06-22T05:51:38;32.42;;;22.90;;
32295;SDS011;18781;51.550;5.418;2023-06-22T05:54:03;37.38;;;23.15;;
32295;SDS011;18781;51.550;5.418;2023-06-22T05:56:29;32.53;;;22.60;;
32295;SDS011;18781;51.550;5.418;2023-06-22T05:58:55;34.20;;;22.23;;
32295;SDS011;18781;51.550;5.418;2023-06-22T06:01:20;32.55;;;23.20;;
32295;SDS011;18781;51.550;5.418;2023-06-22T06:03:46;35.45;;;23.35;;
32295;SDS011;18781;51.550;5.418;2023-06-22T06:06:12;40.25;;;21.67;;
32295;SDS011;18781;51.550;5.418;2023-06-22T06:08:38;32.65;;;22.52;;
32295;SDS011;18781;51.550;5.418;2023-06-22T06:11:04;32.28;;;21.65;;
32295;SDS011;18781;51.550;5.418;2023-06-22T06:13:29;37.10;;;23.58;;
32295;SDS011;18781;51.550;5.418;2023-06-22T06:15:55;31.73;;;22.52;;
32295;SDS011;18781;51.550;5.418;2023-06-22T06:18:21;34.10;;;23.05;;
32295;SDS011;18781;51.550;5.418;2023-06-22T06:20:47;29.17;;;22.88;;
32295;SDS011;18781;51.550;5.418;2023-06-22T06:23:13;29.58;;;22.17;;
32295;SDS011;18781;51.550;5.418;2023-06-22T06:25:39;29.80;;;20.83;;
32295;SDS011;18781;51.550;5.418;2023-06-22T06:28:04;29.67;;;21.33;;
32295;SDS011;18781;51.550;5.418;2023-06-22T06:30:30;29.75;;;22.05;;
32295;SDS011;18781;51.550;5.418;2023-06-22T06:32:56;31.08;;;22.55;;
32295;SDS011;18781;51.550;5.418;2023-06-22T06:35:21;33.08;;;22.90;;
32295;SDS011;18781;51.550;5.418;2023-06-22T06:37:48;30.73;;;22.55;;
32295;SDS011;18781;51.550;5.418;2023-06-22T06:40:15;30.73;;;22.70;;
32295;SDS011;18781;51.550;5.418;2023-06-22T06:42:45;31.40;;;21.45;;
32295;SDS011;18781;51.550;5.418;2023-06-22T06:45:16;31.48;;;23.83;;
32295;SDS011;18781;51.550;5.418;2023-06-22T06:47:43;28.35;;;22.70;;
32295;SDS011;18781;51.550;5.418;2023-06-22T06:50:09;32.78;;;22.23;;
32295;SDS011;18781;51.550;5.418;2023-06-22T06:52:35;27.30;;;22.35;;
32295;SDS011;18781;51.550;5.418;2023-06-22T06:55:01;33.72;;;22.15;;
32295;SDS011;18781;51.550;5.418;2023-06-22T06:57:28;37.95;;;23.13;;
32295;SDS011;18781;51.550;5.418;2023-06-22T06:59:54;34.05;;;22.70;;
32295;SDS011;18781;51.550;5.418;2023-06-22T07:02:21;30.63;;;22.77;;
32295;SDS011;18781;51.550;5.418;2023-06-22T07:04:47;35.63;;;22.80;;
32295;SDS011;18781;51.550;5.418;2023-06-22T07:07:13;30.95;;;23.25;;
32295;SDS011;18781;51.550;5.418;2023-06-22T07:09:38;34.15;;;22.63;;
32295;SDS011;18781;51.550;5.418;2023-06-22T07:12:04;32.22;;;22.67;;
32295;SDS011;18781;51.550;5.418;2023-06-22T07:14:30;28.00;;;22.75;;
32295;SDS011;18781;51.550;5.418;2023-06-22T07:16:56;32.95;;;22.95;;
32295;SDS011;18781;51.550;5.418;2023-06-22T07:19:25;32.60;;;23.02;;
32295;SDS011;18781;51.550;5.418;2023-06-22T07:21:52;33.08;;;24.02;;
32295;SDS011;18781;51.550;5.418;2023-06-22T07:24:19;37.28;;;22.92;;
32295;SDS011;18781;51.550;5.418;2023-06-22T07:26:45;32.15;;;22.25;;
32295;SDS011;18781;51.550;5.418;2023-06-22T07:29:13;28.60;;;22.67;;
32295;SDS011;18781;51.550;5.418;2023-06-22T07:31:38;27.52;;;21.70;;
32295;SDS011;18781;51.550;5.418;2023-06-22T07:34:06;30.48;;;22.88;;
32295;SDS011;18781;51.550;5.418;2023-06-22T07:36:31;27.33;;;20.40;;
32295;SDS011;18781;51.550;5.418;2023-06-22T07:38:57;30.88;;;22.35;;
32295;SDS011;18781;51.550;5.418;2023-06-22T07:41:22;28.05;;;22.33;;
32295;SDS011;18781;51.550;5.418;2023-06-22T07:43:48;32.22;;;21.83;;
32295;SDS011;18781;51.550;5.418;2023-06-22T07:46:14;26.58;;;21.17;;
32295;SDS011;18781;51.550;5.418;2023-06-22T07:48:40;33.05;;;21.52;;
32295;SDS011;18781;51.550;5.418;2023-06-22T07:51:06;30.90;;;23.02;;
32295;SDS011;18781;51.550;5.418;2023-06-22T07:53:32;31.70;;;22.70;;
32295;SDS011;18781;51.550;5.418;2023-06-22T07:55:58;33.63;;;24.13;;
32295;SDS011;18781;51.550;5.418;2023-06-22T07:58:23;30.10;;;24.23;;
32295;SDS011;18781;51.550;5.418;2023-06-22T08:00:49;34.40;;;24.23;;
32295;SDS011;18781;51.550;5.418;2023-06-22T08:03:15;32.78;;;24.33;;
32295;SDS011;18781;51.550;5.418;2023-06-22T08:05:40;33.75;;;22.73;;
32295;SDS011;18781;51.550;5.418;2023-06-22T08:08:06;31.65;;;23.58;;
32295;SDS011;18781;51.550;5.418;2023-06-22T08:10:31;33.95;;;23.48;;
32295;SDS011;18781;51.550;5.418;2023-06-22T08:12:57;35.95;;;23.65;;
32295;SDS011;18781;51.550;5.418;2023-06-22T08:15:23;38.75;;;25.50;;
32295;SDS011;18781;51.550;5.418;2023-06-22T08:17:50;31.85;;;23.85;;
32295;SDS011;18781;51.550;5.418;2023-06-22T08:20:17;35.38;;;24.17;;
32295;SDS011;18781;51.550;5.418;2023-06-22T08:22:43;30.35;;;22.33;;
32295;SDS011;18781;51.550;5.418;2023-06-22T08:25:09;30.58;;;22.60;;
32295;SDS011;18781;51.550;5.418;2023-06-22T08:27:36;38.33;;;23.05;;
32295;SDS011;18781;51.550;5.418;2023-06-22T08:30:01;28.40;;;22.02;;
32295;SDS011;18781;51.550;5.418;2023-06-22T08:32:28;36.20;;;21.17;;
32295;SDS011;18781;51.550;5.418;2023-06-22T08:34:54;31.30;;;21.33;;
32295;SDS011;18781;51.550;5.418;2023-06-22T08:37:21;28.52;;;20.90;;
32295;SDS011;18781;51.550;5.418;2023-06-22T08:39:49;28.58;;;20.52;;
32295;SDS011;18781;51.550;5.418;2023-06-22T08:42:15;24.52;;;20.35;;
32295;SDS011;18781;51.550;5.418;2023-06-22T08:44:41;25.95;;;16.98;;
32295;SDS011;18781;51.550;5.418;2023-06-22T08:47:06;23.13;;;17.75;;
32295;SDS011;18781;51.550;5.418;2023-06-22T08:49:32;23.50;;;17.02;;
32295;SDS011;18781;51.550;5.418;2023-06-22T08:51:58;18.55;;;15.85;;
32295;SDS011;18781;51.550;5.418;2023-06-22T08:54:23;23.73;;;17.20;;
32295;SDS011;18781;51.550;5.418;2023-06-22T08:56:49;26.65;;;16.75;;
32295;SDS011;18781;51.550;5.418;2023-06-22T08:59:14;24.63;;;16.00;;
32295;SDS011;18781;51.550;5.418;2023-06-22T09:01:40;22.50;;;15.98;;
32295;SDS011;18781;51.550;5.418;2023-06-22T09:04:05;23.10;;;15.68;;
32295;SDS011;18781;51.550;5.418;2023-06-22T09:06:34;22.23;;;15.83;;
32295;SDS011;18781;51.550;5.418;2023-06-22T09:08:59;20.08;;;15.63;;
32295;SDS011;18781;51.550;5.418;2023-06-22T09:11:25;16.70;;;12.77;;
32295;SDS011;18781;51.550;5.418;2023-06-22T09:13:50;18.23;;;14.13;;
32295;SDS011;18781;51.550;5.418;2023-06-22T09:16:18;22.98;;;13.00;;
32295;SDS011;18781;51.550;5.418;2023-06-22T09:18:46;18.55;;;13.35;;
32295;SDS011;18781;51.550;5.418;2023-06-22T09:21:12;18.10;;;13.05;;
32295;SDS011;18781;51.550;5.418;2023-06-22T09:23:38;17.42;;;13.35;;
32295;SDS011;18781;51.550;5.418;2023-06-22T09:26:03;17.88;;;12.88;;
32295;SDS011;18781;51.550;5.418;2023-06-22T09:28:29;17.58;;;13.00;;
32295;SDS011;18781;51.550;5.418;2023-06-22T09:30:54;14.43;;;12.23;;
32295;SDS011;18781;51.550;5.418;2023-06-22T09:33:23;17.47;;;13.33;;
32295;SDS011;18781;51.550;5.418;2023-06-22T09:35:49;19.13;;;13.63;;
32295;SDS011;18781;51.550;5.418;2023-06-22T09:38:15;19.58;;;13.10;;
32295;SDS011;18781;51.550;5.418;2023-06-22T09:40:41;17.15;;;13.32;;
32295;SDS011;18781;51.550;5.418;2023-06-22T09:43:07;24.25;;;14.30;;
32295;SDS011;18781;51.550;5.418;2023-06-22T09:45:33;18.48;;;13.40;;
32295;SDS011;18781;51.550;5.418;2023-06-22T09:47:59;18.10;;;13.60;;
32295;SDS011;18781;51.550;5.418;2023-06-22T09:50:24;20.75;;;14.57;;
32295;SDS011;18781;51.550;5.418;2023-06-22T09:52:50;19.65;;;14.45;;
32295;SDS011;18781;51.550;5.418;2023-06-22T09:55:19;17.55;;;13.70;;
32295;SDS011;18781;51.550;5.418;2023-06-22T09:57:45;20.85;;;14.02;;
32295;SDS011;18781;51.550;5.418;2023-06-22T10:00:11;20.58;;;14.38;;
32295;SDS011;18781;51.550;5.418;2023-06-22T10:02:41;18.73;;;13.75;;
32295;SDS011;18781;51.550;5.418;2023-06-22T10:05:07;18.48;;;13.63;;
32295;SDS011;18781;51.550;5.418;2023-06-22T10:07:32;22.05;;;14.48;;
32295;SDS011;18781;51.550;5.418;2023-06-22T10:09:58;21.58;;;14.07;;
32295;SDS011;18781;51.550;5.418;2023-06-22T10:12:24;22.20;;;15.98;;
32295;SDS011;18781;51.550;5.418;2023-06-22T10:14:50;22.27;;;15.23;;
32295;SDS011;18781;51.550;5.418;2023-06-22T10:17:16;27.00;;;16.63;;
32295;SDS011;18781;51.550;5.418;2023-06-22T10:19:41;22.05;;;16.08;;
32295;SDS011;18781;51.550;5.418;2023-06-22T10:22:07;21.75;;;15.82;;
32295;SDS011;18781;51.550;5.418;2023-06-22T10:24:33;20.95;;;15.77;;
32295;SDS011;18781;51.550;5.418;2023-06-22T10:26:58;22.13;;;14.52;;
32295;SDS011;18781;51.550;5.418;2023-06-22T10:29:24;21.92;;;15.45;;
32295;SDS011;18781;51.550;5.418;2023-06-22T10:31:49;22.00;;;15.68;;
32295;SDS011;18781;51.550;5.418;2023-06-22T10:34:15;20.35;;;14.10;;
32295;SDS011;18781;51.550;5.418;2023-06-22T10:36:40;22.73;;;14.50;;
32295;SDS011;18781;51.550;5.418;2023-06-22T10:39:06;21.05;;;15.60;;
32295;SDS011;18781;51.550;5.418;2023-06-22T10:41:32;19.83;;;15.65;;
32295;SDS011;18781;51.550;5.418;2023-06-22T10:43:57;20.23;;;16.25;;
32295;SDS011;18781;51.550;5.418;2023-06-22T10:46:26;27.00;;;16.75;;
32295;SDS011;18781;51.550;5.418;2023-06-22T10:48:52;21.50;;;15.68;;
32295;SDS011;18781;51.550;5.418;2023-06-22T10:51:20;23.60;;;16.80;;
32295;SDS011;18781;51.550;5.418;2023-06-22T10:53:45;20.83;;;15.90;;
32295;SDS011;18781;51.550;5.418;2023-06-22T10:56:11;24.38;;;17.30;;
32295;SDS011;18781;51.550;5.418;2023-06-22T10:58:37;22.48;;;17.27;;
32295;SDS011;18781;51.550;5.418;2023-06-22T11:01:02;23.50;;;17.17;;
32295;SDS011;18781;51.550;5.418;2023-06-22T11:03:28;24.15;;;18.45;;
32295;SDS011;18781;51.550;5.418;2023-06-22T11:05:54;23.80;;;17.98;;
32295;SDS011;18781;51.550;5.418;2023-06-22T11:08:19;24.45;;;18.73;;
32295;SDS011;18781;51.550;5.418;2023-06-22T11:10:45;24.52;;;19.63;;
32295;SDS011;18781;51.550;5.418;2023-06-22T11:13:10;22.92;;;18.30;;
32295;SDS011;18781;51.550;5.418;2023-06-22T11:15:36;23.45;;;19.58;;
32295;SDS011;18781;51.550;5.418;2023-06-22T11:18:02;23.85;;;19.60;;
32295;SDS011;18781;51.550;5.418;2023-06-22T11:20:27;23.98;;;18.80;;
32295;SDS011;18781;51.550;5.418;2023-06-22T11:22:53;23.52;;;19.42;;
32295;SDS011;18781;51.550;5.418;2023-06-22T11:25:18;28.75;;;20.05;;
32295;SDS011;18781;51.550;5.418;2023-06-22T11:27:44;25.08;;;19.00;;
32295;SDS011;18781;51.550;5.418;2023-06-22T11:30:09;27.13;;;20.08;;
32295;SDS011;18781;51.550;5.418;2023-06-22T11:32:35;31.77;;;20.02;;
32295;SDS011;18781;51.550;5.418;2023-06-22T11:35:01;26.45;;;20.45;;
32295;SDS011;18781;51.550;5.418;2023-06-22T11:37:26;30.58;;;20.58;;
32295;SDS011;18781;51.550;5.418;2023-06-22T11:39:52;27.25;;;21.25;;
32295;SDS011;18781;51.550;5.418;2023-06-22T11:42:19;30.30;;;23.20;;
32295;SDS011;18781;51.550;5.418;2023-06-22T11:44:45;28.15;;;21.85;;
32295;SDS011;18781;51.550;5.418;2023-06-22T11:47:11;29.63;;;22.33;;
32295;SDS011;18781;51.550;5.418;2023-06-22T11:49:36;32.03;;;22.70;;
32295;SDS011;18781;51.550;5.418;2023-06-22T11:52:02;30.83;;;22.42;;
32295;SDS011;18781;51.550;5.418;2023-06-22T11:54:28;33.92;;;23.17;;
32295;SDS011;18781;51.550;5.418;2023-06-22T11:56:53;30.63;;;22.83;;
32295;SDS011;18781;51.550;5.418;2023-06-22T11:59:19;31.42;;;24.10;;
32295;SDS011;18781;51.550;5.418;2023-06-22T12:01:46;42.92;;;23.80;;
32295;SDS011;18781;51.550;5.418;2023-06-22T12:04:11;30.60;;;22.98;;
32295;SDS011;18781;51.550;5.418;2023-06-22T12:06:37;34.00;;;24.33;;
32295;SDS011;18781;51.550;5.418;2023-06-22T12:09:06;33.47;;;24.88;;
32295;SDS011;18781;51.550;5.418;2023-06-22T12:11:31;31.80;;;23.98;;
32295;SDS011;18781;51.550;5.418;2023-06-22T12:13:57;36.00;;;25.10;;
32295;SDS011;18781;51.550;5.418;2023-06-22T12:18:52;30.10;;;24.05;;
32295;SDS011;18781;51.550;5.418;2023-06-22T12:21:18;32.67;;;23.60;;
32295;SDS011;18781;51.550;5.418;2023-06-22T12:23:46;37.33;;;24.45;;
32295;SDS011;18781;51.550;5.418;2023-06-22T12:26:11;31.52;;;25.75;;
32295;SDS011;18781;51.550;5.418;2023-06-22T12:28:37;34.53;;;24.65;;
32295;SDS011;18781;51.550;5.418;2023-06-22T12:31:02;30.77;;;24.50;;
32295;SDS011;18781;51.550;5.418;2023-06-22T12:33:28;32.60;;;23.92;;
32295;SDS011;18781;51.550;5.418;2023-06-22T12:35:55;35.33;;;23.92;;
32295;SDS011;18781;51.550;5.418;2023-06-22T12:38:21;30.77;;;23.55;;
32295;SDS011;18781;51.550;5.418;2023-06-22T12:40:47;32.85;;;23.65;;
32295;SDS011;18781;51.550;5.418;2023-06-22T12:43:14;32.05;;;24.30;;
32295;SDS011;18781;51.550;5.418;2023-06-22T12:45:39;29.35;;;23.67;;
32295;SDS011;18781;51.550;5.418;2023-06-22T12:48:05;30.42;;;23.58;;
32295;SDS011;18781;51.550;5.418;2023-06-22T12:50:31;35.00;;;24.15;;
32295;SDS011;18781;51.550;5.418;2023-06-22T12:52:57;36.97;;;23.20;;
32295;SDS011;18781;51.550;5.418;2023-06-22T12:55:22;27.67;;;22.77;;
32295;SDS011;18781;51.550;5.418;2023-06-22T12:57:48;33.97;;;23.35;;
32295;SDS011;18781;51.550;5.418;2023-06-22T13:00:14;32.55;;;22.35;;
32295;SDS011;18781;51.550;5.418;2023-06-22T13:02:40;30.08;;;23.85;;
32295;SDS011;18781;51.550;5.418;2023-06-22T13:05:05;31.38;;;23.08;;
32295;SDS011;18781;51.550;5.418;2023-06-22T13:07:31;30.13;;;22.38;;
32295;SDS011;18781;51.550;5.418;2023-06-22T13:09:57;27.70;;;23.00;;
32295;SDS011;18781;51.550;5.418;2023-06-22T13:12:23;29.63;;;22.17;;
32295;SDS011;18781;51.550;5.418;2023-06-22T13:14:48;27.88;;;21.63;;
32295;SDS011;18781;51.550;5.418;2023-06-22T13:17:14;26.85;;;21.27;;
32295;SDS011;18781;51.550;5.418;2023-06-22T13:19:40;29.30;;;20.40;;
32295;SDS011;18781;51.550;5.418;2023-06-22T13:24:55;26.92;;;20.92;;
32295;SDS011;18781;51.550;5.418;2023-06-22T13:27:21;28.15;;;19.77;;
32295;SDS011;18781;51.550;5.418;2023-06-22T13:29:47;25.52;;;20.20;;
32295;SDS011;18781;51.550;5.418;2023-06-22T13:32:13;26.95;;;20.83;;
32295;SDS011;18781;51.550;5.418;2023-06-22T13:34:38;26.98;;;20.75;;
32295;SDS011;18781;51.550;5.418;2023-06-22T13:37:04;24.05;;;19.50;;
32295;SDS011;18781;51.550;5.418;2023-06-22T13:39:30;27.75;;;19.45;;
32295;SDS011;18781;51.550;5.418;2023-06-22T13:41:56;23.65;;;19.35;;
32295;SDS011;18781;51.550;5.418;2023-06-22T13:44:22;25.65;;;19.13;;
32295;SDS011;18781;51.550;5.418;2023-06-22T13:46:48;25.85;;;18.77;;
32295;SDS011;18781;51.550;5.418;2023-06-22T13:49:14;22.30;;;18.77;;
32295;SDS011;18781;51.550;5.418;2023-06-22T13:51:39;24.08;;;18.83;;
32295;SDS011;18781;51.550;5.418;2023-06-22T13:54:05;27.25;;;18.80;;
32295;SDS011;18781;51.550;5.418;2023-06-22T13:56:30;21.42;;;17.90;;
32295;SDS011;18781;51.550;5.418;2023-06-22T13:58:57;23.02;;;18.55;;
32295;SDS011;18781;51.550;5.418;2023-06-22T14:01:23;23.27;;;18.38;;
32295;SDS011;18781;51.550;5.418;2023-06-22T14:03:48;24.80;;;18.60;;
32295;SDS011;18781;51.550;5.418;2023-06-22T14:06:14;23.33;;;18.15;;
32295;SDS011;18781;51.550;5.418;2023-06-22T14:08:39;24.25;;;18.02;;
32295;SDS011;18781;51.550;5.418;2023-06-22T14:11:05;24.55;;;19.65;;
32295;SDS011;18781;51.550;5.418;2023-06-22T14:13:30;27.38;;;20.35;;
32295;SDS011;18781;51.550;5.418;2023-06-22T14:15:56;24.33;;;19.40;;
32295;SDS011;18781;51.550;5.418;2023-06-22T14:18:21;25.17;;;20.45;;
32295;SDS011;18781;51.550;5.418;2023-06-22T14:20:47;26.02;;;19.85;;
32295;SDS011;18781;51.550;5.418;2023-06-22T14:23:13;22.20;;;19.80;;
32295;SDS011;18781;51.550;5.418;2023-06-22T14:25:39;24.08;;;20.33;;
32295;SDS011;18781;51.550;5.418;2023-06-22T14:28:05;22.75;;;20.02;;
32295;SDS011;18781;51.550;5.418;2023-06-22T14:30:31;31.48;;;20.73;;
32295;SDS011;18781;51.550;5.418;2023-06-22T14:32:56;27.70;;;19.70;;
32295;SDS011;18781;51.550;5.418;2023-06-22T14:35:22;25.25;;;19.83;;
32295;SDS011;18781;51.550;5.418;2023-06-22T14:37:49;24.75;;;19.75;;